Wetterstation Vordersexau
Wetterdaten: Woche 13.02.17 - 19.02.17 (KW7)
Datum Zeit Temp. A. Feuchte A. Luftdruck Regen Wind Richtung Taupunkt Windchill Windben
13.02.2017 00:00 1,5 C 86 % 1022,5 hPa 0,0 l/m 0,0 km/h W-SW -0,6 C 1,5 C 0,0 km/h
13.02.2017 01:00 1,1 C 86 % 1022,8 hPa 0,0 l/m 0,0 km/h W -1,0 C 1,1 C 0,0 km/h
13.02.2017 02:00 0,6 C 86 % 1023,0 hPa 0,0 l/m 0,0 km/h W -1,5 C 0,6 C 0,0 km/h
13.02.2017 03:00 -0,1 C 86 % 1022,7 hPa 0,0 l/m 0,0 km/h W -2,2 C -0,1 C 0,0 km/h
13.02.2017 04:00 0,1 C 85 % 1022,8 hPa 0,0 l/m 0,0 km/h W -2,1 C 0,1 C 0,0 km/h
13.02.2017 05:00 -0,2 C 85 % 1022,8 hPa 0,0 l/m 0,0 km/h W -2,4 C -0,2 C 0,0 km/h
13.02.2017 06:00 -1,7 C 86 % 1022,7 hPa 0,0 l/m 0,0 km/h W -3,7 C -1,7 C 0,0 km/h
13.02.2017 07:00 -1,9 C 86 % 1022,8 hPa 0,0 l/m 0,0 km/h W -3,9 C -1,9 C 0,0 km/h
13.02.2017 08:00 -1,4 C 85 % 1022,7 hPa 0,0 l/m 0,0 km/h W -3,6 C -1,4 C 0,0 km/h
13.02.2017 09:00 -0,4 C 84 % 1022,9 hPa 0,0 l/m 0,0 km/h S-SO -2,8 C -0,4 C 0,0 km/h
13.02.2017 10:00 0,5 C 83 % 1022,6 hPa 0,0 l/m 0,0 km/h NW -2,0 C 0,5 C 0,0 km/h
13.02.2017 11:00 1,1 C 84 % 1022,8 hPa 0,0 l/m 0,0 km/h SW -1,3 C 1,1 C 0,0 km/h
13.02.2017 12:00 2,7 C 86 % 1022,7 hPa 0,0 l/m 0,0 km/h S-SW 0,6 C 2,7 C 0,0 km/h
13.02.2017 13:00 7,9 C 77 % 1022,1 hPa 0,0 l/m 0,6 km/h SW 4,1 C 7,9 C 0,4 km/h
13.02.2017 14:00 9,5 C 70 % 1021,5 hPa 0,0 l/m 0,0 km/h W 4,3 C 9,5 C 0,0 km/h
13.02.2017 15:00 11,5 C 63 % 1021,4 hPa 0,0 l/m 0,0 km/h W 4,7 C 11,5 C 0,0 km/h
13.02.2017 16:00 11,3 C 61 % 1020,9 hPa 0,0 l/m 0,0 km/h W 4,1 C 11,3 C 0,0 km/h
13.02.2017 17:00 7,1 C 69 % 1020,5 hPa 0,0 l/m 0,0 km/h W 1,8 C 7,1 C 0,0 km/h
13.02.2017 18:00 2,0 C 76 % 1020,7 hPa 0,0 l/m 0,0 km/h W -1,8 C 2,0 C 0,0 km/h
13.02.2017 19:00 0,6 C 82 % 1021,1 hPa 0,0 l/m 0,0 km/h W -2,1 C 0,6 C 0,0 km/h
13.02.2017 20:00 -0,7 C 84 % 1021,2 hPa 0,0 l/m 0,0 km/h W -3,1 C -0,7 C 0,0 km/h
13.02.2017 21:00 -1,5 C 85 % 1021,4 hPa 0,0 l/m 0,0 km/h W -3,7 C -1,5 C 0,0 km/h
13.02.2017 22:00 -1,8 C 86 % 1021,4 hPa 0,0 l/m 0,0 km/h W -3,8 C -1,8 C 0,0 km/h
13.02.2017 23:00 -2,1 C 87 % 1021,8 hPa 0,0 l/m 0,0 km/h W -4,0 C -2,1 C 0,0 km/h
14.02.2017 00:00 -2,5 C 87 % 1022,0 hPa 0,0 l/m 0,0 km/h W -4,4 C -2,5 C 0,0 km/h
14.02.2017 01:00 -2,5 C 87 % 1022,1 hPa 0,0 l/m 0,0 km/h W -4,4 C -2,5 C 0,0 km/h
14.02.2017 02:00 -2,7 C 86 % 1022,3 hPa 0,0 l/m 0,0 km/h W -4,7 C -2,7 C 0,0 km/h
14.02.2017 03:00 -3,0 C 86 % 1022,5 hPa 0,0 l/m 0,0 km/h W -5,0 C -3,0 C 0,0 km/h
14.02.2017 04:00 -3,1 C 86 % 1022,7 hPa 0,0 l/m 0,0 km/h W -5,1 C -3,1 C 0,0 km/h
14.02.2017 05:00 -3,8 C 86 % 1023,4 hPa 0,0 l/m 0,0 km/h S-SW -5,8 C -3,8 C 0,0 km/h
14.02.2017 06:00 -3,8 C 86 % 1023,8 hPa 0,0 l/m 0,0 km/h S-SW -5,8 C -3,8 C 0,0 km/h
14.02.2017 07:00 -3,6 C 86 % 1024,3 hPa 0,0 l/m 0,0 km/h S-SW -5,6 C -3,6 C 0,0 km/h
14.02.2017 08:00 -3,5 C 86 % 1025,1 hPa 0,0 l/m 0,0 km/h S -5,5 C -3,5 C 0,0 km/h
14.02.2017 09:00 0,8 C 81 % 1025,6 hPa 0,0 l/m 0,0 km/h S -2,1 C 0,8 C 0,0 km/h
14.02.2017 10:00 6,9 C 85 % 1025,7 hPa 0,5 l/m 0,0 km/h NW 4,6 C 6,9 C 0,0 km/h
14.02.2017 11:00 9,8 C 69 % 1026,3 hPa 0,0 l/m 0,0 km/h NW 4,4 C 9,8 C 0,0 km/h
14.02.2017 12:00 11,3 C 61 % 1026,1 hPa 0,0 l/m 0,0 km/h N 4,1 C 11,3 C 0,0 km/h
14.02.2017 13:00 11,9 C 58 % 1026,0 hPa 0,0 l/m 0,0 km/h N 3,9 C 11,9 C 0,0 km/h
14.02.2017 14:00 12,6 C 57 % 1026,2 hPa 0,0 l/m 4,5 km/h W-NW 4,3 C 12,6 C 2,5 km/h
14.02.2017 15:00 15,0 C 51 % 1026,3 hPa 0,0 l/m 0,0 km/h NW 4,9 C 15,0 C 0,0 km/h
14.02.2017 16:00 16,4 C 47 % 1026,7 hPa 0,0 l/m 0,0 km/h NW 5,1 C 16,4 C 0,0 km/h
14.02.2017 17:00 11,9 C 55 % 1027,0 hPa 0,0 l/m 0,0 km/h NW 3,2 C 11,9 C 0,0 km/h
14.02.2017 18:00 4,2 C 67 % 1027,6 hPa 0,0 l/m 0,0 km/h NW -1,4 C 4,2 C 0,0 km/h
14.02.2017 19:00 2,0 C 77 % 1028,4 hPa 0,0 l/m 0,0 km/h NW -1,6 C 2,0 C 0,0 km/h
14.02.2017 20:00 0,7 C 81 % 1028,5 hPa 0,0 l/m 0,0 km/h NW -2,2 C 0,7 C 0,0 km/h
14.02.2017 21:00 -0,4 C 84 % 1029,2 hPa 0,0 l/m 0,0 km/h NW -2,8 C -0,4 C 0,0 km/h
14.02.2017 22:00 -0,7 C 86 % 1029,3 hPa 0,0 l/m 0,0 km/h NW -2,7 C -0,7 C 0,0 km/h
14.02.2017 23:00 -1,0 C 86 % 1029,6 hPa 0,0 l/m 0,0 km/h NW -3,0 C -1,0 C 0,0 km/h
15.02.2017 00:00 -1,5 C 86 % 1030,1 hPa 0,0 l/m 0,0 km/h NW -3,5 C -1,5 C 0,0 km/h
15.02.2017 01:00 -1,6 C 86 % 1030,5 hPa 0,0 l/m 0,0 km/h NW -3,6 C -1,6 C 0,0 km/h
15.02.2017 02:00 -1,9 C 87 % 1030,4 hPa 0,0 l/m 0,0 km/h NW -3,8 C -1,9 C 0,0 km/h
15.02.2017 03:00 -1,9 C 87 % 1030,4 hPa 0,0 l/m 0,0 km/h NW -3,8 C -1,9 C 0,0 km/h
15.02.2017 04:00 -2,2 C 87 % 1030,5 hPa 0,0 l/m 0,0 km/h NW -4,1 C -2,2 C 0,0 km/h
15.02.2017 05:00 -2,2 C 87 % 1030,8 hPa 0,0 l/m 0,0 km/h NW -4,1 C -2,2 C 0,0 km/h
15.02.2017 06:00 -2,2 C 86 % 1030,6 hPa 0,0 l/m 0,0 km/h NW -4,2 C -2,2 C 0,0 km/h
15.02.2017 07:00 -2,2 C 86 % 1031,0 hPa 0,0 l/m 0,0 km/h NW -4,2 C -2,2 C 0,0 km/h
15.02.2017 08:00 -2,1 C 86 % 1031,5 hPa 0,0 l/m 0,0 km/h NW -4,1 C -2,1 C 0,0 km/h
15.02.2017 09:00 2,3 C 83 % 1032,0 hPa 0,0 l/m 0,0 km/h NW -0,3 C 2,3 C 0,0 km/h
15.02.2017 10:00 10,9 C 76 % 1032,2 hPa 0,0 l/m 0,0 km/h NW 6,8 C 10,9 C 0,0 km/h
15.02.2017 11:00 12,0 C 64 % 1032,1 hPa 0,0 l/m 0,0 km/h NW 5,4 C 12,0 C 0,0 km/h
15.02.2017 12:00 14,1 C 58 % 1032,1 hPa 0,0 l/m 0,0 km/h W-NW 6,0 C 14,1 C 0,0 km/h
15.02.2017 13:00 15,4 C 56 % 1031,5 hPa 0,0 l/m 0,0 km/h W-NW 6,7 C 15,4 C 0,0 km/h
15.02.2017 14:00 18,1 C 49 % 1031,1 hPa 0,0 l/m 0,0 km/h W-NW 7,2 C 18,1 C 0,0 km/h
15.02.2017 15:00 19,9 C 43 % 1031,1 hPa 0,0 l/m 0,6 km/h W-NW 6,9 C 19,9 C 0,4 km/h
15.02.2017 16:00 22,1 C 40 % 1030,8 hPa 0,0 l/m 0,0 km/h W-NW 7,9 C 22,1 C 0,0 km/h
15.02.2017 17:00 20,2 C 42 % 1030,8 hPa 0,0 l/m 0,0 km/h W-NW 6,9 C 20,2 C 0,0 km/h
15.02.2017 18:00 8,9 C 64 % 1031,1 hPa 0,0 l/m 0,0 km/h W-NW 2,5 C 8,9 C 0,0 km/h
15.02.2017 19:00 5,9 C 74 % 1031,0 hPa 0,0 l/m 0,0 km/h W-NW 1,6 C 5,9 C 0,0 km/h
15.02.2017 20:00 4,1 C 79 % 1031,4 hPa 0,0 l/m 0,0 km/h W-NW 0,8 C 4,1 C 0,0 km/h
15.02.2017 21:00 3,2 C 82 % 1031,2 hPa 0,0 l/m 0,0 km/h NO 0,4 C 3,2 C 0,0 km/h
15.02.2017 22:00 3,6 C 84 % 1031,4 hPa 0,0 l/m 0,0 km/h SO 1,2 C 3,6 C 0,0 km/h
15.02.2017 23:00 3,1 C 84 % 1030,7 hPa 0,0 l/m 1,9 km/h O-SO 0,7 C 3,1 C 1,1 km/h
16.02.2017 00:00 1,9 C 85 % 1031,2 hPa 0,0 l/m 1,9 km/h N-NO -0,3 C 1,9 C 1,1 km/h
16.02.2017 01:00 2,4 C 86 % 1031,3 hPa 0,0 l/m 0,0 km/h O-SO 0,3 C 2,4 C 0,0 km/h
16.02.2017 02:00 2,1 C 86 % 1031,1 hPa 0,0 l/m 0,0 km/h O 0,0 C 2,1 C 0,0 km/h
16.02.2017 03:00 1,6 C 86 % 1030,7 hPa 0,0 l/m 0,0 km/h O -0,5 C 1,6 C 0,0 km/h
16.02.2017 04:00 0,8 C 86 % 1030,6 hPa 0,0 l/m 0,0 km/h SO -1,3 C 0,8 C 0,0 km/h
16.02.2017 05:00 1,2 C 86 % 1030,6 hPa 0,0 l/m 14,3 km/h SO -0,9 C -5,1 C 7,9 km/h
16.02.2017 06:00 1,3 C 86 % 1030,3 hPa 0,0 l/m 0,0 km/h NO -0,8 C 1,3 C 0,0 km/h
16.02.2017 07:00 0,5 C 86 % 1030,3 hPa 0,0 l/m 0,0 km/h O-NO -1,6 C 0,5 C 0,0 km/h
16.02.2017 08:00 -0,1 C 86 % 1030,3 hPa 0,0 l/m 0,0 km/h O-NO -2,2 C -0,1 C 0,0 km/h
16.02.2017 09:00 5,9 C 86 % 1030,0 hPa 0,0 l/m 0,0 km/h O-NO 3,7 C 5,9 C 0,0 km/h
16.02.2017 10:00 13,5 C 67 % 1029,5 hPa 0,0 l/m 0,0 km/h NO 7,5 C 13,5 C 0,0 km/h
16.02.2017 11:00 17,2 C 54 % 1029,4 hPa 0,0 l/m 0,0 km/h W-NW 7,8 C 17,2 C 0,0 km/h
16.02.2017 12:00 19,4 C 49 % 1028,8 hPa 0,0 l/m 0,0 km/h W 8,4 C 19,4 C 0,0 km/h
16.02.2017 13:00 19,3 C 47 % 1027,8 hPa 0,0 l/m 0,6 km/h W 7,7 C 19,3 C 0,4 km/h
16.02.2017 14:00 19,9 C 45 % 1027,2 hPa 0,0 l/m 0,0 km/h W 7,6 C 19,9 C 0,0 km/h
16.02.2017 15:00 21,6 C 42 % 1026,2 hPa 0,0 l/m 0,0 km/h W 8,1 C 21,6 C 0,0 km/h
16.02.2017 16:00 22,2 C 41 % 1025,8 hPa 0,0 l/m 0,0 km/h W 8,3 C 22,2 C 0,0 km/h
16.02.2017 17:00 14,9 C 54 % 1025,7 hPa 0,0 l/m 0,0 km/h W 5,7 C 14,9 C 0,0 km/h
16.02.2017 18:00 9,9 C 68 % 1025,6 hPa 0,0 l/m 0,0 km/h S-SW 4,3 C 9,9 C 0,0 km/h
16.02.2017 19:00 8,5 C 74 % 1025,6 hPa 0,0 l/m 0,0 km/h S-SO 4,1 C 8,5 C 0,0 km/h
16.02.2017 20:00 7,6 C 78 % 1025,6 hPa 0,0 l/m 0,0 km/h O-SO 4,0 C 7,6 C 0,0 km/h
16.02.2017 21:00 7,6 C 79 % 1025,8 hPa 0,0 l/m 0,0 km/h O-SO 4,2 C 7,6 C 0,0 km/h
16.02.2017 22:00 7,6 C 80 % 1025,5 hPa 0,0 l/m 0,0 km/h O-SO 4,4 C 7,6 C 0,0 km/h
16.02.2017 23:00 6,4 C 82 % 1025,3 hPa 0,0 l/m 0,0 km/h O-SO 3,6 C 6,4 C 0,0 km/h
17.02.2017 00:00 6,2 C 84 % 1025,2 hPa 0,0 l/m 0,0 km/h O-SO 3,7 C 6,2 C 0,0 km/h
17.02.2017 01:00 6,5 C 85 % 1025,2 hPa 2,1 l/m 1,9 km/h SO 4,2 C 6,5 C 1,1 km/h
17.02.2017 02:00 6,6 C 85 % 1024,7 hPa 0,5 l/m 0,0 km/h SO 4,3 C 6,6 C 0,0 km/h
17.02.2017 03:00 6,4 C 85 % 1024,6 hPa 0,0 l/m 0,0 km/h SO 4,1 C 6,4 C 0,0 km/h
17.02.2017 04:00 6,4 C 85 % 1024,1 hPa 0,0 l/m 0,0 km/h N-NO 4,1 C 6,4 C 0,0 km/h
17.02.2017 05:00 6,4 C 85 % 1024,0 hPa 0,0 l/m 0,0 km/h N-NO 4,1 C 6,4 C 0,0 km/h
17.02.2017 06:00 6,2 C 85 % 1023,8 hPa 0,5 l/m 0,0 km/h N-NO 3,9 C 6,2 C 0,0 km/h
17.02.2017 07:00 5,9 C 85 % 1023,6 hPa 0,0 l/m 0,0 km/h N-NO 3,6 C 5,9 C 0,0 km/h
17.02.2017 08:00 5,5 C 85 % 1024,9 hPa 0,0 l/m 1,3 km/h N 3,2 C 5,5 C 0,7 km/h
17.02.2017 09:00 5,2 C 86 % 1025,5 hPa 1,0 l/m 0,0 km/h S-SO 3,1 C 5,2 C 0,0 km/h
17.02.2017 11:00 5,4 C 85 % 1026,1 hPa 2,1 l/m 0,0 km/h SO 3,1 C 5,4 C 0,0 km/h
17.02.2017 12:00 6,4 C 86 % 1025,3 hPa 0,0 l/m 2,6 km/h SO 4,2 C 6,4 C 1,4 km/h
17.02.2017 13:00 8,6 C 83 % 1025,0 hPa 0,0 l/m 0,0 km/h SO 5,9 C 8,6 C 0,0 km/h
17.02.2017 14:00 10,6 C 77 % 1024,6 hPa 0,0 l/m 3,2 km/h S-SO 6,7 C 10,6 C 1,8 km/h
17.02.2017 15:00 10,9 C 70 % 1024,2 hPa 0,0 l/m 0,0 km/h SO 5,6 C 10,9 C 0,0 km/h
17.02.2017 16:00 9,7 C 71 % 1024,1 hPa 0,0 l/m 2,6 km/h O-NO 4,7 C 9,7 C 1,4 km/h
17.02.2017 17:00 7,8 C 78 % 1024,2 hPa 0,0 l/m 0,0 km/h SO 4,2 C 7,8 C 0,0 km/h
17.02.2017 18:00 5,9 C 84 % 1024,4 hPa 0,5 l/m 0,0 km/h SO 3,4 C 5,9 C 0,0 km/h
17.02.2017 19:00 4,6 C 86 % 1024,9 hPa 0,0 l/m 0,0 km/h SO 2,5 C 4,6 C 0,0 km/h
17.02.2017 20:00 4,7 C 86 % 1024,9 hPa 0,0 l/m 0,0 km/h SO 2,6 C 4,7 C 0,0 km/h
17.02.2017 21:00 4,7 C 86 % 1024,8 hPa 0,0 l/m 0,0 km/h SO 2,6 C 4,7 C 0,0 km/h
17.02.2017 22:00 4,5 C 85 % 1025,2 hPa 0,0 l/m 0,0 km/h SO 2,2 C 4,5 C 0,0 km/h
17.02.2017 23:00 4,9 C 85 % 1025,2 hPa 0,0 l/m 0,0 km/h O-NO 2,6 C 4,9 C 0,0 km/h
18.02.2017 00:00 5,2 C 84 % 1025,2 hPa 0,5 l/m 0,0 km/h O-NO 2,7 C 5,2 C 0,0 km/h
18.02.2017 01:00 5,0 C 83 % 1024,9 hPa 0,5 l/m 0,0 km/h O-SO 2,4 C 5,0 C 0,0 km/h
18.02.2017 02:00 4,9 C 83 % 1024,7 hPa 0,0 l/m 0,0 km/h O-SO 2,3 C 4,9 C 0,0 km/h
18.02.2017 03:00 4,8 C 82 % 1024,4 hPa 0,5 l/m 0,0 km/h O-SO 2,0 C 4,8 C 0,0 km/h
18.02.2017 04:00 4,1 C 82 % 1024,0 hPa 0,0 l/m 0,0 km/h O-SO 1,3 C 4,1 C 0,0 km/h
18.02.2017 05:00 4,3 C 82 % 1024,0 hPa 0,0 l/m 0,0 km/h O-SO 1,5 C 4,3 C 0,0 km/h
18.02.2017 06:00 2,4 C 82 % 1024,2 hPa 0,0 l/m 0,0 km/h O-SO -0,4 C 2,4 C 0,0 km/h
18.02.2017 07:00 1,8 C 83 % 1024,5 hPa 0,0 l/m 0,0 km/h O-SO -0,8 C 1,8 C 0,0 km/h
18.02.2017 08:00 1,9 C 82 % 1024,4 hPa 0,0 l/m 0,0 km/h O-SO -0,8 C 1,9 C 0,0 km/h
18.02.2017 09:00 3,4 C 77 % 1024,5 hPa 0,0 l/m 0,0 km/h NO -0,2 C 3,4 C 0,0 km/h
18.02.2017 10:00 6,4 C 86 % 1024,4 hPa 0,0 l/m 0,0 km/h N-NW 4,2 C 6,4 C 0,0 km/h
18.02.2017 11:00 8,3 C 84 % 1024,2 hPa 0,0 l/m 0,0 km/h W 5,8 C 8,3 C 0,0 km/h
18.02.2017 12:00 11,2 C 77 % 1023,9 hPa 0,0 l/m 0,0 km/h W 7,3 C 11,2 C 0,0 km/h
18.02.2017 13:00 13,9 C 70 % 1022,9 hPa 0,0 l/m 0,0 km/h O-SO 8,5 C 13,9 C 0,0 km/h
18.02.2017 14:00 14,6 C 62 % 1022,0 hPa 0,0 l/m 0,0 km/h N 7,4 C 14,6 C 0,0 km/h
18.02.2017 15:00 14,9 C 56 % 1021,8 hPa 0,0 l/m 0,0 km/h NO 6,2 C 14,9 C 0,0 km/h
18.02.2017 16:00 13,3 C 55 % 1021,8 hPa 0,0 l/m 0,0 km/h NO 4,5 C 13,3 C 0,0 km/h
18.02.2017 17:00 9,8 C 64 % 1022,1 hPa 0,0 l/m 0,0 km/h N-NO 3,3 C 9,8 C 0,0 km/h
18.02.2017 18:00 6,9 C 67 % 1022,4 hPa 0,0 l/m 0,0 km/h SO 1,2 C 6,9 C 0,0 km/h
18.02.2017 19:00 4,4 C 77 % 1022,6 hPa 0,0 l/m 0,0 km/h O-SO 0,7 C 4,4 C 0,0 km/h
18.02.2017 20:00 3,6 C 81 % 1022,3 hPa 0,0 l/m 0,0 km/h O-SO 0,7 C 3,6 C 0,0 km/h
18.02.2017 21:00 2,1 C 83 % 1022,7 hPa 0,0 l/m 0,0 km/h O-NO -0,5 C 2,1 C 0,0 km/h
18.02.2017 22:00 1,2 C 85 % 1022,9 hPa 0,0 l/m 0,0 km/h O -1,0 C 1,2 C 0,0 km/h
18.02.2017 23:00 0,4 C 86 % 1022,9 hPa 0,0 l/m 0,0 km/h O-SO -1,7 C 0,4 C 0,0 km/h
19.02.2017 00:00 -0,1 C 86 % 1022,6 hPa 0,0 l/m 0,0 km/h O-SO -2,2 C -0,1 C 0,0 km/h
19.02.2017 01:00 -1,4 C 86 % 1023,0 hPa 0,0 l/m 0,0 km/h O-SO -3,4 C -1,4 C 0,0 km/h
19.02.2017 02:00 -1,7 C 86 % 1022,9 hPa 0,0 l/m 0,0 km/h O-SO -3,7 C -1,7 C 0,0 km/h
19.02.2017 03:00 -1,6 C 86 % 1022,4 hPa 0,0 l/m 0,0 km/h O-SO -3,6 C -1,6 C 0,0 km/h
19.02.2017 04:00 -2,1 C 86 % 1022,2 hPa 0,0 l/m 0,0 km/h O -4,1 C -2,1 C 0,0 km/h
19.02.2017 05:00 -2,1 C 86 % 1022,1 hPa 0,0 l/m 0,0 km/h O -4,1 C -2,1 C 0,0 km/h
19.02.2017 06:00 -2,4 C 86 % 1022,5 hPa 0,0 l/m 0,0 km/h O-SO -4,4 C -2,4 C 0,0 km/h
19.02.2017 07:00 -2,4 C 86 % 1022,5 hPa 0,0 l/m 0,0 km/h O-SO -4,4 C -2,4 C 0,0 km/h
19.02.2017 08:00 -2,5 C 85 % 1022,4 hPa 0,0 l/m 0,0 km/h O-SO -4,7 C -2,5 C 0,0 km/h
19.02.2017 09:00 1,9 C 82 % 1022,8 hPa 0,0 l/m 0,0 km/h N-NO -0,8 C 1,9 C 0,0 km/h
19.02.2017 10:00 8,6 C 80 % 1023,2 hPa 0,0 l/m 0,0 km/h N-NO 5,3 C 8,6 C 0,0 km/h
19.02.2017 11:00 13,2 C 63 % 1022,9 hPa 0,0 l/m 0,0 km/h W-NW 6,3 C 13,2 C 0,0 km/h
19.02.2017 12:00 14,8 C 55 % 1022,6 hPa 0,0 l/m 22,7 km/h W-NW 5,8 C 8,8 C 12,6 km/h
19.02.2017 13:00 12,4 C 58 % 1021,9 hPa 0,0 l/m 0,0 km/h W 4,4 C 12,4 C 0,0 km/h
19.02.2017 14:00 12,3 C 59 % 1021,3 hPa 0,0 l/m 0,0 km/h W-SW 4,5 C 12,3 C 0,0 km/h
19.02.2017 15:00 12,6 C 56 % 1020,4 hPa 0,0 l/m 0,0 km/h W 4,1 C 12,6 C 0,0 km/h
19.02.2017 16:00 18,1 C 47 % 1020,2 hPa 0,0 l/m 0,0 km/h S 6,6 C 18,1 C 0,0 km/h
19.02.2017 17:00 14,5 C 50 % 1019,7 hPa 0,5 l/m 13,6 km/h S-SW 4,2 C 11,1 C 7,6 km/h
19.02.2017 18:00 9,7 C 60 % 1020,0 hPa 0,0 l/m 7,8 km/h S 2,3 C 8,7 C 4,3 km/h
19.02.2017 19:00 6,9 C 67 % 1020,4 hPa 0,0 l/m 0,0 km/h N-NO 1,2 C 6,9 C 0,0 km/h
19.02.2017 20:00 4,9 C 75 % 1020,8 hPa 0,0 l/m 0,0 km/h NO 0,8 C 4,9 C 0,0 km/h
19.02.2017 21:00 4,3 C 80 % 1021,1 hPa 0,0 l/m 0,0 km/h O-NO 1,2 C 4,3 C 0,0 km/h
19.02.2017 22:00 4,6 C 81 % 1021,6 hPa 0,0 l/m 0,0 km/h O-NO 1,6 C 4,6 C 0,0 km/h
19.02.2017 23:00 4,4 C 82 % 1021,8 hPa 0,0 l/m 0,0 km/h O-NO 1,6 C 4,4 C 0,0 km/h
Min-Datum _ 14.02.17 15.02.17 19.02.17 - 13.02.17 - 14.02.17 16.02.17 13.02.17
_ Min-Zeit 05:10 16:10 17:01 - 00:10 - 05:10 05:10 00:10
Minimum _ -3,8 C 40 % 1019,7 hPa - 0,0 km/h - -5,8 C -5,1 C 0,0 km/h
Max-Datum _ 16.02.17 13.02.17 15.02.17 17.02.17 19.02.17 - 18.02.17 16.02.17 19.02.17
_ Max-Zeit 16:10 23:10 10:10 01:10 12:01 - 13:01 16:10 12:01
Maximum _ 22,2 C 87 % 1032,2 hPa 2,1 l/m 22,7 km/h
W-NW
- 8,5 C 22,2 C 12,6 km/h
W-NW
Durchschnitt _ 5,4 C 77 % 1025,3 hPa #9,3 l/m 0,5 km/h W 1,3 C 5,3 C 0,3 km/h
www.sexauwetter.de